Time,TemperatureF,DewpointF,PressureIn,WindDirection,WindDirectionDegrees,WindSpeedMPH,WindSpeedGustMPH,Humidity,HourlyPrecipIn,Conditions,Clouds,dailyrainin,SoftwareType,DateUTC
2013-04-09 00:00:00,65.1,45.7,30.12,NNW,338,3.8,4.0,50,0.00,,,0.00,VWS V14.01,2013-04-09 04:00:00,
2013-04-09 00:05:00,64.7,45.4,30.12,SSW,202,2.2,4.9,50,0.00,,,0.00,VWS V14.01,2013-04-09 04:05:00,
2013-04-09 00:10:00,64.9,45.5,30.12,ENE,68,2.9,4.9,50,0.00,,,0.00,VWS V14.01,2013-04-09 04:10:00,
2013-04-09 00:15:00,65.8,46.4,30.12,WNW,292,2.0,2.7,50,0.00,,,0.00,VWS V14.01,2013-04-09 04:15:00,
2013-04-09 00:20:00,65.4,46.0,30.12,NNW,338,1.1,2.7,50,0.00,,,0.00,VWS V14.01,2013-04-09 04:20:00,
2013-04-09 00:25:00,64.9,45.5,30.12,WSW,248,3.4,3.4,50,0.00,,,0.00,VWS V14.01,2013-04-09 04:25:00,
2013-04-09 00:30:00,64.9,45.5,30.12,NW,315,2.2,3.4,50,0.00,,,0.00,VWS V14.01,2013-04-09 04:30:00,
2013-04-09 00:35:00,64.2,44.9,30.12,WSW,248,2.7,5.8,50,0.00,,,0.00,VWS V14.01,2013-04-09 04:35:00,
2013-04-09 00:40:00,65.9,46.5,30.12,WNW,292,2.5,5.8,50,0.00,,,0.00,VWS V14.01,2013-04-09 04:40:00,
2013-04-09 00:45:00,66.1,46.7,30.12,ESE,112,1.6,2.0,50,0.00,,,0.00,VWS V14.01,2013-04-09 04:45:00,
2013-04-09 00:50:00,64.9,45.5,30.15,South,180,1.6,2.2,50,0.00,,,0.00,VWS V14.01,2013-04-09 04:50:00,
2013-04-09 00:55:00,64.7,45.4,30.15,North,0,2.0,4.3,50,0.00,,,0.00,VWS V14.01,2013-04-09 04:55:00,
2013-04-09 01:00:00,63.4,44.8,30.15,WSW,248,2.0,2.5,50,0.00,,,0.00,VWS V14.01,2013-04-09 05:00:00,
2013-04-09 01:05:00,62.7,44.1,30.15,NNE,22,3.4,3.8,50,0.00,,,0.00,VWS V14.01,2013-04-09 05:05:00,
2013-04-09 01:10:00,62.5,43.9,30.15,WNW,292,0.0,4.3,50,0.00,,,0.00,VWS V14.01,2013-04-09 05:10:00,
2013-04-09 01:15:00,60.7,42.8,30.15,NW,315,0.0,0.0,52,0.00,,,0.00,VWS V14.01,2013-04-09 05:15:00,
2013-04-09 01:20:00,60.5,43.6,30.12,NE,45,2.2,8.5,54,0.00,,,0.00,VWS V14.01,2013-04-09 05:20:00,
2013-04-09 01:25:00,60.4,42.9,30.12,East,90,1.3,8.5,52,0.00,,,0.00,VWS V14.01,2013-04-09 05:25:00,
2013-04-09 01:30:00,60.2,43.3,30.12,NNW,338,1.6,1.6,54,0.00,,,0.00,VWS V14.01,2013-04-09 05:30:00,
2013-04-09 01:35:00,59.3,42.9,30.12,West,270,0.0,3.1,54,0.00,,,0.00,VWS V14.01,2013-04-09 05:35:00,
2013-04-09 01:40:00,57.7,42.3,30.15,NNW,338,3.6,3.6,56,0.00,,,0.00,VWS V14.01,2013-04-09 05:40:00,
2013-04-09 01:45:00,57.5,43.1,30.15,WSW,248,0.0,2.0,58,0.00,,,0.00,VWS V14.01,2013-04-09 05:45:00,
2013-04-09 01:50:00,57.3,43.3,30.12,North,0,2.0,3.6,60,0.00,,,0.00,VWS V14.01,2013-04-09 05:50:00,
2013-04-09 01:55:00,57.0,43.4,30.12,WSW,248,3.1,3.6,60,0.00,,,0.00,VWS V14.01,2013-04-09 05:55:00,
2013-04-09 02:00:00,57.0,43.4,30.12,NNW,338,1.6,1.6,60,0.00,,,0.00,VWS V14.01,2013-04-09 06:00:00,
2013-04-09 02:05:00,55.9,43.3,30.12,SSE,158,3.6,3.6,62,0.00,,,0.00,VWS V14.01,2013-04-09 06:05:00,
2013-04-09 02:10:00,55.5,43.3,30.12,SW,225,2.7,5.4,64,0.00,,,0.00,VWS V14.01,2013-04-09 06:10:00,
2013-04-09 02:15:00,55.3,43.2,30.12,WNW,292,1.1,1.1,64,0.00,,,0.00,VWS V14.01,2013-04-09 06:15:00,
2013-04-09 02:20:00,55.0,43.2,30.12,WNW,292,1.6,2.7,64,0.00,,,0.00,VWS V14.01,2013-04-09 06:20:00,
2013-04-09 02:25:00,54.6,42.9,30.12,NNW,338,0.9,2.9,64,0.00,,,0.00,VWS V14.01,2013-04-09 06:25:00,
2013-04-09 02:30:00,53.9,43.4,30.12,North,0,2.9,2.9,68,0.00,,,0.00,VWS V14.01,2013-04-09 06:30:00,
2013-04-09 02:35:00,53.7,43.2,30.12,WNW,292,3.1,3.1,68,0.00,,,0.00,VWS V14.01,2013-04-09 06:35:00,
2013-04-09 02:40:00,53.9,43.8,30.12,NNW,338,1.6,3.1,68,0.00,,,0.00,VWS V14.01,2013-04-09 06:40:00,
2013-04-09 02:45:00,53.7,44.0,30.12,SSE,158,0.0,2.2,70,0.00,,,0.00,VWS V14.01,2013-04-09 06:45:00,
2013-04-09 02:50:00,53.3,43.6,30.12,ESE,112,2.2,3.1,70,0.00,,,0.00,VWS V14.01,2013-04-09 06:50:00,
2013-04-09 02:55:00,52.8,43.5,30.12,East,90,0.0,3.1,70,0.00,,,0.00,VWS V14.01,2013-04-09 06:55:00,
2013-04-09 03:00:00,52.6,43.7,30.12,SSW,202,2.0,3.1,72,0.00,,,0.00,VWS V14.01,2013-04-09 07:00:00,
2013-04-09 03:05:00,52.3,43.7,30.12,NNE,22,0.9,3.1,72,0.00,,,0.00,VWS V14.01,2013-04-09 07:05:00,
2013-04-09 03:10:00,52.6,45.5,30.12,NW,315,2.5,3.1,76,0.00,,,0.00,VWS V14.01,2013-04-09 07:10:00,
2013-04-09 03:15:00,51.7,43.9,30.12,SSW,202,0.0,0.0,74,0.00,,,0.00,VWS V14.01,2013-04-09 07:15:00,
2013-04-09 03:20:00,51.5,44.4,30.12,NNW,338,0.0,2.9,76,0.00,,,0.00,VWS V14.01,2013-04-09 07:20:00,
2013-04-09 03:25:00,51.7,46.3,30.12,West,270,1.3,2.9,82,0.00,,,0.00,VWS V14.01,2013-04-09 07:25:00,
2013-04-09 03:30:00,51.5,44.8,30.12,NNW,338,1.3,1.6,78,0.00,,,0.00,VWS V14.01,2013-04-09 07:30:00,
2013-04-09 03:35:00,51.0,45.2,30.09,NNW,338,2.5,2.5,80,0.00,,,0.00,VWS V14.01,2013-04-09 07:35:00,
2013-04-09 03:40:00,50.7,45.5,30.09,NNW,338,1.6,3.8,82,0.00,,,0.00,VWS V14.01,2013-04-09 07:40:00,
2013-04-09 03:45:00,50.7,45.8,30.09,NW,315,1.3,2.0,84,0.00,,,0.00,VWS V14.01,2013-04-09 07:45:00,
2013-04-09 03:50:00,50.1,44.4,30.09,SSE,158,1.6,2.0,80,0.00,,,0.00,VWS V14.01,2013-04-09 07:50:00,
2013-04-09 03:55:00,50.1,45.0,30.12,SSW,202,0.0,2.0,82,0.00,,,0.00,VWS V14.01,2013-04-09 07:55:00,
2013-04-09 04:00:00,49.6,44.8,30.12,SSE,158,0.0,1.3,84,0.00,,,0.00,VWS V14.01,2013-04-09 08:00:00,
2013-04-09 04:05:00,49.9,46.7,30.12,WNW,292,1.1,2.0,88,0.00,,,0.00,VWS V14.01,2013-04-09 08:05:00,
2013-04-09 04:10:00,49.4,44.9,30.12,ESE,112,0.0,2.0,84,0.00,,,0.00,VWS V14.01,2013-04-09 08:10:00,
2013-04-09 04:15:00,49.0,44.3,30.12,NW,315,0.0,0.0,84,0.00,,,0.00,VWS V14.01,2013-04-09 08:15:00,
2013-04-09 04:20:00,48.8,44.4,30.12,SE,135,2.5,2.7,84,0.00,,,0.00,VWS V14.01,2013-04-09 08:20:00,
2013-04-09 04:25:00,48.5,45.0,30.12,South,180,2.5,2.7,88,0.00,,,0.00,VWS V14.01,2013-04-09 08:25:00,
2013-04-09 04:30:00,48.5,46.4,30.12,SE,135,3.1,3.1,92,0.00,,,0.00,VWS V14.01,2013-04-09 08:30:00,
2013-04-09 04:35:00,49.0,47.0,30.12,WNW,292,2.5,3.4,92,0.00,,,0.00,VWS V14.01,2013-04-09 08:35:00,
2013-04-09 04:40:00,49.0,47.2,30.12,SW,225,2.2,3.4,94,0.00,,,0.00,VWS V14.01,2013-04-09 08:40:00,
2013-04-09 04:45:00,49.0,47.5,30.12,West,270,1.6,2.2,94,0.00,,,0.00,VWS V14.01,2013-04-09 08:45:00,
2013-04-09 04:50:00,49.0,47.5,30.15,NNW,338,1.6,2.2,94,0.00,,,0.00,VWS V14.01,2013-04-09 08:50:00,
2013-04-09 04:55:00,48.7,46.0,30.15,NE,45,0.0,2.2,90,0.00,,,0.00,VWS V14.01,2013-04-09 08:55:00,
2013-04-09 05:00:00,48.8,47.1,30.15,SSE,158,2.5,2.7,94,0.00,,,0.00,VWS V14.01,2013-04-09 09:00:00,
2013-04-09 05:06:00,48.7,46.6,30.15,West,270,0.0,2.7,92,0.00,,,0.00,VWS V14.01,2013-04-09 09:06:00,
2013-04-09 05:11:00,48.5,46.4,30.15,South,180,0.0,2.7,92,0.00,,,0.00,VWS V14.01,2013-04-09 09:11:00,
2013-04-09 05:15:00,48.3,46.0,30.15,NW,315,0.0,2.7,92,0.00,,,0.00,VWS V14.01,2013-04-09 09:15:00,
2013-04-09 05:16:00,48.3,46.0,30.15,WNW,292,0.0,1.6,92,0.00,,,0.00,VWS V14.01,2013-04-09 09:16:00,
2013-04-09 05:21:00,48.0,45.3,30.15,SSE,158,0.0,1.6,90,0.00,,,0.00,VWS V14.01,2013-04-09 09:21:00,
2013-04-09 05:26:00,48.0,45.6,30.15,West,270,1.3,2.2,92,0.00,,,0.00,VWS V14.01,2013-04-09 09:26:00,
2013-04-09 05:30:00,47.8,45.4,30.15,NNW,338,0.0,2.2,92,0.00,,,0.00,VWS V14.01,2013-04-09 09:30:00,
2013-04-09 05:32:00,47.8,45.7,30.15,NNW,338,0.0,0.0,92,0.00,,,0.00,VWS V14.01,2013-04-09 09:32:00,
2013-04-09 05:37:00,47.6,45.2,30.15,South,180,0.0,1.3,92,0.00,,,0.00,VWS V14.01,2013-04-09 09:37:00,
2013-04-09 05:42:00,47.8,46.0,30.15,WNW,292,1.6,2.9,94,0.00,,,0.00,VWS V14.01,2013-04-09 09:42:00,
2013-04-09 05:45:00,47.8,46.5,30.15,South,180,0.0,2.9,96,0.00,,,0.00,VWS V14.01,2013-04-09 09:45:00,
2013-04-09 05:47:00,47.6,46.1,30.15,ESE,112,0.0,1.6,94,0.00,,,0.00,VWS V14.01,2013-04-09 09:47:00,
2013-04-09 05:52:00,47.2,45.5,30.15,SE,135,0.0,1.6,94,0.00,,,0.00,VWS V14.01,2013-04-09 09:52:00,
2013-04-09 05:57:00,47.2,45.7,30.15,SSE,158,0.0,1.6,94,0.00,,,0.00,VWS V14.01,2013-04-09 09:57:00,
2013-04-09 06:00:00,47.2,46.0,30.15,SSE,158,0.0,1.6,96,0.00,,,0.00,VWS V14.01,2013-04-09 10:00:00,
2013-04-09 06:02:00,47.6,46.9,30.15,SSW,202,0.0,2.0,98,0.00,,,0.00,VWS V14.01,2013-04-09 10:02:00,
2013-04-09 06:07:00,47.4,47.4,30.12,NW,315,1.6,2.0,100,0.00,,,0.00,VWS V14.01,2013-04-09 10:07:00,
2013-04-09 06:12:00,47.4,47.4,30.12,NNW,338,0.0,2.0,100,0.00,,,0.00,VWS V14.01,2013-04-09 10:12:00,
2013-04-09 06:15:00,47.2,47.2,30.12,NW,315,0.0,2.0,100,0.00,,,0.00,VWS V14.01,2013-04-09 10:15:00,
2013-04-09 06:17:00,47.2,47.2,30.12,NW,315,0.0,0.0,100,0.00,,,0.00,VWS V14.01,2013-04-09 10:17:00,
2013-04-09 06:22:00,46.9,46.7,30.15,North,0,0.0,0.0,100,0.00,,,0.00,VWS V14.01,2013-04-09 10:22:00,
2013-04-09 06:27:00,47.0,46.4,30.15,SSW,202,0.0,0.0,98,0.00,,,0.00,VWS V14.01,2013-04-09 10:27:00,
2013-04-09 06:30:00,46.9,46.5,30.15,SSW,202,0.0,0.0,98,0.00,,,0.00,VWS V14.01,2013-04-09 10:30:00,
2013-04-09 06:32:00,46.9,46.9,30.15,SSW,202,0.0,0.0,100,0.00,,,0.00,VWS V14.01,2013-04-09 10:32:00,
2013-04-09 06:37:00,46.7,46.7,30.12,East,90,0.0,0.0,100,0.00,,,0.00,VWS V14.01,2013-04-09 10:37:00,
2013-04-09 06:42:00,46.5,46.5,30.12,WNW,292,0.0,1.1,100,0.00,,,0.00,VWS V14.01,2013-04-09 10:42:00,
2013-04-09 06:45:00,46.5,46.5,30.12,NW,315,0.0,1.1,100,0.00,,,0.00,VWS V14.01,2013-04-09 10:45:00,
2013-04-09 06:47:00,46.7,46.7,30.12,NW,315,0.0,1.6,100,0.00,,,0.00,VWS V14.01,2013-04-09 10:47:00,
2013-04-09 06:52:00,46.5,46.5,30.15,SSE,158,0.0,1.6,100,0.00,,,0.00,VWS V14.01,2013-04-09 10:52:00,
2013-04-09 06:57:00,46.3,46.3,30.15,SSW,202,0.0,1.6,100,0.00,,,0.00,VWS V14.01,2013-04-09 10:57:00,
2013-04-09 07:00:00,46.0,46.0,30.15,South,180,0.0,2.2,100,0.00,,,0.00,VWS V14.01,2013-04-09 11:00:00,
2013-04-09 07:02:00,46.0,46.0,30.15,South,180,0.0,0.0,100,0.00,,,0.00,VWS V14.01,2013-04-09 11:02:00,
2013-04-09 07:07:00,46.2,46.2,30.15,South,180,1.6,1.6,100,0.00,,,0.00,VWS V14.01,2013-04-09 11:07:00,
2013-04-09 07:12:00,46.2,46.2,30.15,NW,315,0.0,1.6,100,0.00,,,0.00,VWS V14.01,2013-04-09 11:12:00,
2013-04-09 07:15:00,46.0,46.0,30.15,SSE,158,0.0,1.6,100,0.00,,,0.00,VWS V14.01,2013-04-09 11:15:00,
2013-04-09 07:17:00,46.0,46.0,30.15,SSE,158,1.6,2.2,100,0.00,,,0.00,VWS V14.01,2013-04-09 11:17:00,
2013-04-09 07:22:00,47.0,47.0,30.18,WSW,248,0.0,2.2,100,0.00,,,0.00,VWS V14.01,2013-04-09 11:22:00,
2013-04-09 07:27:00,46.5,46.5,30.18,WSW,248,0.0,2.2,100,0.00,,,0.00,VWS V14.01,2013-04-09 11:27:00,
2013-04-09 07:30:00,46.5,46.5,30.18,West,270,0.0,2.2,100,0.00,,,0.00,VWS V14.01,2013-04-09 11:30:00,
2013-04-09 07:32:00,46.0,46.0,30.18,South,180,0.0,0.0,100,0.00,,,0.00,VWS V14.01,2013-04-09 11:32:00,
2013-04-09 07:37:00,45.8,45.8,30.18,South,180,0.0,0.0,100,0.00,,,0.00,VWS V14.01,2013-04-09 11:37:00,
2013-04-09 07:42:00,45.8,45.8,30.18,South,180,0.0,0.0,100,0.00,,,0.00,VWS V14.01,2013-04-09 11:42:00,
2013-04-09 07:47:00,46.0,46.0,30.18,WSW,248,0.0,0.0,100,0.00,,,0.00,VWS V14.01,2013-04-09 11:47:00,
2013-04-09 07:52:00,46.0,46.0,30.18,WSW,248,0.0,0.0,100,0.00,,,0.00,VWS V14.01,2013-04-09 11:52:00,
2013-04-09 07:57:00,46.3,46.3,30.18,SSW,202,0.0,0.0,100,0.00,,,0.00,VWS V14.01,2013-04-09 11:57:00,
2013-04-09 08:00:00,46.3,46.3,30.18,SSW,202,0.0,0.0,100,0.00,,,0.00,VWS V14.01,2013-04-09 12:00:00,
2013-04-09 08:02:00,46.3,46.3,30.18,SSW,202,0.0,0.0,100,0.00,,,0.00,VWS V14.01,2013-04-09 12:02:00,
2013-04-09 08:07:00,46.3,46.3,30.18,WNW,292,0.0,0.0,100,0.00,,,0.00,VWS V14.01,2013-04-09 12:07:00,
2013-04-09 08:12:00,46.5,46.5,30.18,WNW,292,0.0,0.0,100,0.00,,,0.00,VWS V14.01,2013-04-09 12:12:00,
2013-04-09 08:15:00,46.7,46.7,30.18,WNW,292,0.0,0.0,100,0.00,,,0.00,VWS V14.01,2013-04-09 12:15:00,
2013-04-09 08:17:00,46.9,46.9,30.18,WNW,292,0.0,0.0,100,0.00,,,0.00,VWS V14.01,2013-04-09 12:17:00,
2013-04-09 08:22:00,47.8,47.8,30.18,SE,135,0.0,0.0,100,0.00,,,0.00,VWS V14.01,2013-04-09 12:22:00,
2013-04-09 08:27:00,48.7,48.7,30.18,SSE,158,0.0,0.0,100,0.00,,,0.00,VWS V14.01,2013-04-09 12:27:00,
2013-04-09 08:30:00,49.4,49.4,30.18,SSE,158,0.0,0.0,100,0.00,,,0.00,VWS V14.01,2013-04-09 12:30:00,
2013-04-09 08:32:00,49.4,49.4,30.18,SSE,158,0.0,0.0,100,0.00,,,0.00,VWS V14.01,2013-04-09 12:32:00,
2013-04-09 08:37:00,49.9,49.9,30.18,SSE,158,0.0,0.0,100,0.00,,,0.00,VWS V14.01,2013-04-09 12:37:00,
2013-04-09 08:42:00,50.3,50.3,30.18,SSE,158,0.0,0.0,100,0.00,,,0.00,VWS V14.01,2013-04-09 12:42:00,
2013-04-09 08:45:00,51.2,51.2,30.18,NNW,338,0.0,0.0,100,0.00,,,0.00,VWS V14.01,2013-04-09 12:45:00,
2013-04-09 08:47:00,51.4,51.4,30.18,NNW,338,1.6,1.6,100,0.00,,,0.00,VWS V14.01,2013-04-09 12:47:00,
2013-04-09 08:52:00,52.5,52.5,30.21,NW,315,1.1,2.0,100,0.00,,,0.00,VWS V14.01,2013-04-09 12:52:00,
2013-04-09 08:57:00,53.5,53.5,30.21,NW,315,0.0,2.0,100,0.00,,,0.00,VWS V14.01,2013-04-09 12:57:00,
2013-04-09 09:00:00,53.7,53.7,30.21,NW,315,0.0,2.0,100,0.00,,,0.00,VWS V14.01,2013-04-09 13:00:00,
2013-04-09 09:02:00,53.9,53.5,30.21,NW,315,0.0,0.0,98,0.00,,,0.00,VWS V14.01,2013-04-09 13:02:00,
2013-04-09 09:07:00,55.2,50.9,30.21,NW,315,0.9,1.3,86,0.00,,,0.00,VWS V14.01,2013-04-09 13:07:00,
2013-04-09 09:12:00,55.7,50.8,30.21,NW,315,0.0,1.3,84,0.00,,,0.00,VWS V14.01,2013-04-09 13:12:00,
2013-04-09 09:14:00,56.0,51.1,30.21,WNW,292,0.0,0.0,84,0.00,,,0.00,VWS V14.01,2013-04-09 13:14:00,
2013-04-09 09:15:00,56.0,51.1,30.21,NNW,338,0.0,0.0,84,0.00,,,0.00,VWS V14.01,2013-04-09 13:15:00,
2013-04-09 09:17:00,56.4,51.2,30.21,NNW,338,0.0,0.0,82,0.00,,,0.00,VWS V14.01,2013-04-09 13:17:00,
2013-04-09 09:22:00,57.3,49.7,30.18,NNW,338,1.6,1.6,76,0.00,,,0.00,VWS V14.01,2013-04-09 13:22:00,
2013-04-09 09:27:00,58.6,48.2,30.18,NNW,338,2.0,2.0,68,0.00,,,0.00,VWS V14.01,2013-04-09 13:27:00,
2013-04-09 09:30:00,58.9,47.8,30.18,NNW,338,2.9,2.9,66,0.00,,,0.00,VWS V14.01,2013-04-09 13:30:00,
2013-04-09 09:32:00,59.1,48.0,30.18,NW,315,1.1,1.1,66,0.00,,,0.00,VWS V14.01,2013-04-09 13:32:00,
2013-04-09 09:37:00,60.0,47.6,30.18,West,270,0.0,0.0,64,0.00,,,0.00,VWS V14.01,2013-04-09 13:37:00,
2013-04-09 09:42:00,61.1,48.2,30.18,WNW,292,0.0,0.0,62,0.00,,,0.00,VWS V14.01,2013-04-09 13:42:00,
2013-04-09 09:45:00,61.5,48.1,30.18,NNW,338,0.9,0.9,62,0.00,,,0.00,VWS V14.01,2013-04-09 13:45:00,
2013-04-09 09:47:00,61.6,48.3,30.18,NNW,338,2.5,2.5,62,0.00,,,0.00,VWS V14.01,2013-04-09 13:47:00,
2013-04-09 09:52:00,62.2,47.9,30.18,WNW,292,2.0,2.0,60,0.00,,,0.00,VWS V14.01,2013-04-09 13:52:00,
2013-04-09 09:57:00,63.1,48.3,30.18,WNW,292,2.0,2.0,58,0.00,,,0.00,VWS V14.01,2013-04-09 13:57:00,
2013-04-09 10:00:00,63.6,48.3,30.18,WNW,292,1.6,1.6,58,0.00,,,0.00,VWS V14.01,2013-04-09 14:00:00,
2013-04-09 10:02:00,63.8,48.0,30.18,WNW,292,3.1,3.1,56,0.00,,,0.00,VWS V14.01,2013-04-09 14:02:00,
2013-04-09 10:07:00,64.3,48.1,30.18,NNW,338,1.3,1.3,56,0.00,,,0.00,VWS V14.01,2013-04-09 14:07:00,
2013-04-09 10:12:00,65.4,48.1,30.18,NE,45,2.5,2.5,54,0.00,,,0.00,VWS V14.01,2013-04-09 14:12:00,
2013-04-09 10:15:00,65.9,48.1,30.18,NNE,22,2.7,2.7,52,0.00,,,0.00,VWS V14.01,2013-04-09 14:15:00,
2013-04-09 10:18:00,66.3,48.9,30.18,NNW,338,0.9,0.9,54,0.00,,,0.00,VWS V14.01,2013-04-09 14:18:00,
2013-04-09 10:23:00,67.0,49.1,30.21,NNE,22,2.7,2.7,52,0.00,,,0.00,VWS V14.01,2013-04-09 14:23:00,
2013-04-09 10:27:00,67.6,48.6,30.21,West,270,1.1,1.1,50,0.00,,,0.00,VWS V14.01,2013-04-09 14:27:00,
2013-04-09 10:30:00,68.1,49.1,30.21,NNE,22,2.7,2.7,50,0.00,,,0.00,VWS V14.01,2013-04-09 14:30:00,
2013-04-09 10:32:00,68.1,49.1,30.21,WNW,292,2.0,2.0,50,0.00,,,0.00,VWS V14.01,2013-04-09 14:32:00,
2013-04-09 10:37:00,68.3,48.7,30.21,NE,45,1.3,1.3,50,0.00,,,0.00,VWS V14.01,2013-04-09 14:37:00,
2013-04-09 10:42:00,68.7,49.0,30.21,ENE,68,1.1,1.1,50,0.00,,,0.00,VWS V14.01,2013-04-09 14:42:00,
2013-04-09 10:45:00,68.8,48.6,30.21,ESE,112,0.9,0.9,48,0.00,,,0.00,VWS V14.01,2013-04-09 14:45:00,
2013-04-09 10:48:00,69.0,48.8,30.21,NNW,338,2.0,2.0,48,0.00,,,0.00,VWS V14.01,2013-04-09 14:48:00,
2013-04-09 10:53:00,69.2,49.0,30.21,South,180,0.9,0.9,48,0.00,,,0.00,VWS V14.01,2013-04-09 14:53:00,
2013-04-09 10:58:00,69.6,49.3,30.21,WNW,292,3.1,3.1,48,0.00,,,0.00,VWS V14.01,2013-04-09 14:58:00,
2013-04-09 11:03:00,69.7,48.3,30.21,NNW,338,4.0,4.0,46,0.00,,,0.00,VWS V14.01,2013-04-09 15:03:00,
2013-04-09 11:08:00,70.1,48.1,30.21,SE,135,4.3,4.3,46,0.00,,,0.00,VWS V14.01,2013-04-09 15:08:00,
2013-04-09 11:13:00,70.8,47.5,30.21,WSW,248,4.3,4.3,44,0.00,,,0.00,VWS V14.01,2013-04-09 15:13:00,
2013-04-09 11:15:00,70.6,47.4,30.21,SE,135,4.9,4.9,44,0.00,,,0.00,VWS V14.01,2013-04-09 15:15:00,
2013-04-09 11:18:00,70.6,47.4,30.21,ESE,112,2.2,2.2,44,0.00,,,0.00,VWS V14.01,2013-04-09 15:18:00,
2013-04-09 11:23:00,70.8,46.9,30.21,SSW,202,2.9,2.9,42,0.00,,,0.00,VWS V14.01,2013-04-09 15:23:00,
2013-04-09 11:28:00,71.3,47.4,30.21,South,180,5.4,5.4,42,0.00,,,0.00,VWS V14.01,2013-04-09 15:28:00,
2013-04-09 11:30:00,71.5,46.9,30.21,SE,135,7.2,7.2,42,0.00,,,0.00,VWS V14.01,2013-04-09 15:30:00,
2013-04-09 11:33:00,71.5,46.9,30.21,South,180,7.6,7.6,42,0.00,,,0.00,VWS V14.01,2013-04-09 15:33:00,
2013-04-09 11:38:00,71.7,47.1,30.21,SSE,158,3.1,3.1,42,0.00,,,0.00,VWS V14.01,2013-04-09 15:38:00,
2013-04-09 11:43:00,72.2,46.9,30.21,South,180,1.3,1.3,40,0.00,,,0.00,VWS V14.01,2013-04-09 15:43:00,
2013-04-09 11:48:00,72.6,47.3,30.21,ESE,112,3.6,3.6,40,0.00,,,0.00,VWS V14.01,2013-04-09 15:48:00,
2013-04-09 11:53:00,73.2,47.1,30.21,SE,135,3.4,3.4,40,0.00,,,0.00,VWS V14.01,2013-04-09 15:53:00,
2013-04-09 11:58:00,73.9,47.7,30.21,SW,225,3.4,3.4,40,0.00,,,0.00,VWS V14.01,2013-04-09 15:58:00,
2013-04-09 12:00:00,73.7,47.6,30.21,SSW,202,2.7,2.7,40,0.00,,,0.00,VWS V14.01,2013-04-09 16:00:00,
2013-04-09 12:03:00,73.7,47.6,30.21,South,180,1.6,1.6,40,0.00,,,0.00,VWS V14.01,2013-04-09 16:03:00,
2013-04-09 12:08:00,73.9,47.7,30.21,SE,135,3.6,3.6,40,0.00,,,0.00,VWS V14.01,2013-04-09 16:08:00,
2013-04-09 12:13:00,73.5,47.4,30.21,SE,135,3.6,3.6,40,0.00,,,0.00,VWS V14.01,2013-04-09 16:13:00,
2013-04-09 12:15:00,74.2,48.0,30.21,South,180,4.0,4.0,40,0.00,,,0.00,VWS V14.01,2013-04-09 16:15:00,
2013-04-09 12:18:00,73.9,47.0,30.21,ESE,112,3.8,3.8,38,0.00,,,0.00,VWS V14.01,2013-04-09 16:18:00,
2013-04-09 12:23:00,74.1,47.9,30.21,ESE,112,3.1,3.1,40,0.00,,,0.00,VWS V14.01,2013-04-09 16:23:00,
2013-04-09 12:28:00,73.9,47.0,30.21,SSE,158,2.7,2.7,38,0.00,,,0.00,VWS V14.01,2013-04-09 16:28:00,
2013-04-09 12:30:00,74.9,48.0,30.21,SSE,158,3.1,3.1,38,0.00,,,0.00,VWS V14.01,2013-04-09 16:30:00,
2013-04-09 12:33:00,74.9,48.0,30.21,SE,135,6.0,6.0,38,0.00,,,0.00,VWS V14.01,2013-04-09 16:33:00,
2013-04-09 12:38:00,75.1,48.2,30.21,SSE,158,4.3,4.3,38,0.00,,,0.00,VWS V14.01,2013-04-09 16:38:00,
2013-04-09 12:43:00,75.1,48.2,30.21,North,0,2.5,2.5,38,0.00,,,0.00,VWS V14.01,2013-04-09 16:43:00,
2013-04-09 12:45:00,74.9,48.0,30.21,SSE,158,2.0,2.0,38,0.00,,,0.00,VWS V14.01,2013-04-09 16:45:00,
2013-04-09 12:48:00,74.9,48.0,30.21,SSW,202,3.4,3.4,38,0.00,,,0.00,VWS V14.01,2013-04-09 16:48:00,
2013-04-09 12:53:00,74.6,47.7,30.21,South,180,5.4,5.4,38,0.00,,,0.00,VWS V14.01,2013-04-09 16:53:00,
2013-04-09 12:58:00,74.6,47.7,30.21,NNE,22,2.5,2.5,38,0.00,,,0.00,VWS V14.01,2013-04-09 16:58:00,
2013-04-09 13:03:00,74.8,47.8,30.21,SSE,158,2.0,2.0,38,0.00,,,0.00,VWS V14.01,2013-04-09 17:03:00,
2013-04-09 13:08:00,75.1,47.5,30.21,South,180,3.6,3.6,38,0.00,,,0.00,VWS V14.01,2013-04-09 17:08:00,
2013-04-09 13:13:00,75.8,48.1,30.21,South,180,3.1,3.1,38,0.00,,,0.00,VWS V14.01,2013-04-09 17:13:00,
2013-04-09 13:15:00,75.3,47.6,30.21,SE,135,5.8,5.8,38,0.00,,,0.00,VWS V14.01,2013-04-09 17:15:00,
2013-04-09 13:18:00,75.3,47.6,30.21,South,180,4.9,4.9,38,0.00,,,0.00,VWS V14.01,2013-04-09 17:18:00,
2013-04-09 13:23:00,75.3,47.6,30.21,SSE,158,8.5,8.5,38,0.00,,,0.00,VWS V14.01,2013-04-09 17:23:00,
2013-04-09 13:28:00,73.7,46.9,30.21,South,180,2.9,2.9,38,0.00,,,0.00,VWS V14.01,2013-04-09 17:28:00,
2013-04-09 13:30:00,74.4,46.8,30.21,South,180,1.6,1.6,38,0.00,,,0.00,VWS V14.01,2013-04-09 17:30:00,
2013-04-09 13:33:00,74.6,47.0,30.21,ESE,112,2.2,2.2,38,0.00,,,0.00,VWS V14.01,2013-04-09 17:33:00,
2013-04-09 13:38:00,74.8,47.1,30.18,SSW,202,4.3,4.3,38,0.00,,,0.00,VWS V14.01,2013-04-09 17:38:00,
2013-04-09 13:43:00,75.5,47.8,30.18,South,180,1.1,1.1,38,0.00,,,0.00,VWS V14.01,2013-04-09 17:43:00,
2013-04-09 13:45:00,75.8,48.1,30.18,ESE,112,1.6,1.6,38,0.00,,,0.00,VWS V14.01,2013-04-09 17:45:00,
2013-04-09 13:48:00,76.0,48.3,30.18,South,180,3.4,3.4,38,0.00,,,0.00,VWS V14.01,2013-04-09 17:48:00,
2013-04-09 13:53:00,76.0,48.3,30.18,SSW,202,1.1,1.1,38,0.00,,,0.00,VWS V14.01,2013-04-09 17:53:00,
2013-04-09 13:58:00,76.0,47.5,30.18,SW,225,3.4,3.4,36,0.00,,,0.00,VWS V14.01,2013-04-09 17:58:00,
2013-04-09 14:00:00,76.4,47.9,30.18,South,180,1.6,1.6,36,0.00,,,0.00,VWS V14.01,2013-04-09 18:00:00,
2013-04-09 14:03:00,76.4,47.9,30.18,SE,135,6.5,6.5,36,0.00,,,0.00,VWS V14.01,2013-04-09 18:03:00,
2013-04-09 14:08:00,76.2,47.7,30.18,SW,225,0.0,0.0,36,0.00,,,0.00,VWS V14.01,2013-04-09 18:08:00,
2013-04-09 14:13:00,76.8,48.2,30.18,East,90,2.7,2.7,36,0.00,,,0.00,VWS V14.01,2013-04-09 18:13:00,
2013-04-09 14:15:00,76.9,48.3,30.18,WNW,292,4.7,4.7,36,0.00,,,0.00,VWS V14.01,2013-04-09 18:15:00,
2013-04-09 14:18:00,76.9,48.3,30.18,ENE,68,2.5,2.5,36,0.00,,,0.00,VWS V14.01,2013-04-09 18:18:00,
2013-04-09 14:23:00,76.8,48.2,30.18,SE,135,2.7,2.7,36,0.00,,,0.00,VWS V14.01,2013-04-09 18:23:00,
2013-04-09 14:28:00,76.4,47.9,30.18,SSE,158,2.7,2.7,36,0.00,,,0.00,VWS V14.01,2013-04-09 18:28:00,
2013-04-09 14:30:00,76.4,47.9,30.18,SE,135,6.0,6.0,36,0.00,,,0.00,VWS V14.01,2013-04-09 18:30:00,
2013-04-09 14:33:00,76.4,47.9,30.18,SSE,158,4.3,4.3,36,0.00,,,0.00,VWS V14.01,2013-04-09 18:33:00,
2013-04-09 14:38:00,75.8,47.4,30.15,SW,225,3.1,3.1,36,0.00,,,0.00,VWS V14.01,2013-04-09 18:38:00,
2013-04-09 14:43:00,75.8,47.4,30.15,South,180,1.3,1.3,36,0.00,,,0.00,VWS V14.01,2013-04-09 18:43:00,
2013-04-09 14:45:00,76.0,47.5,30.15,South,180,2.7,2.7,36,0.00,,,0.00,VWS V14.01,2013-04-09 18:45:00,
2013-04-09 14:48:00,76.0,47.5,30.15,NNW,338,2.0,2.0,36,0.00,,,0.00,VWS V14.01,2013-04-09 18:48:00,
2013-04-09 14:53:00,76.2,47.7,30.15,SSW,202,2.7,2.7,36,0.00,,,0.00,VWS V14.01,2013-04-09 18:53:00,
2013-04-09 14:58:00,76.4,47.9,30.15,West,270,1.6,1.6,36,0.00,,,0.00,VWS V14.01,2013-04-09 18:58:00,
2013-04-09 15:00:00,76.8,48.2,30.15,South,180,4.3,4.3,36,0.00,,,0.00,VWS V14.01,2013-04-09 19:00:00,
2013-04-09 15:03:00,76.4,47.9,30.15,ESE,112,1.1,1.1,36,0.00,,,0.00,VWS V14.01,2013-04-09 19:03:00,
2013-04-09 15:08:00,76.4,47.9,30.15,NE,45,3.1,3.1,36,0.00,,,0.00,VWS V14.01,2013-04-09 19:08:00,
2013-04-09 15:13:00,76.8,48.2,30.15,West,270,2.2,2.2,36,0.00,,,0.00,VWS V14.01,2013-04-09 19:13:00,
2013-04-09 15:15:00,76.8,48.2,30.15,WNW,292,3.4,3.4,36,0.00,,,0.00,VWS V14.01,2013-04-09 19:15:00,
2013-04-09 15:18:00,77.1,48.5,30.15,SSE,158,0.0,0.0,36,0.00,,,0.00,VWS V14.01,2013-04-09 19:18:00,
2013-04-09 15:23:00,76.9,48.3,30.15,SE,135,2.9,2.9,36,0.00,,,0.00,VWS V14.01,2013-04-09 19:23:00,
2013-04-09 15:28:00,76.4,47.9,30.15,NNW,338,1.6,1.6,36,0.00,,,0.00,VWS V14.01,2013-04-09 19:28:00,
2013-04-09 15:30:00,76.4,47.9,30.15,SE,135,2.9,2.9,36,0.00,,,0.00,VWS V14.01,2013-04-09 19:30:00,
2013-04-09 15:33:00,76.6,48.0,30.15,South,180,4.3,4.3,36,0.00,,,0.00,VWS V14.01,2013-04-09 19:33:00,
2013-04-09 15:38:00,76.8,48.2,30.15,SE,135,4.0,4.0,36,0.00,,,0.00,VWS V14.01,2013-04-09 19:38:00,
2013-04-09 15:43:00,76.4,47.9,30.15,ESE,112,2.2,2.2,36,0.00,,,0.00,VWS V14.01,2013-04-09 19:43:00,
2013-04-09 15:45:00,76.6,48.0,30.15,South,180,5.6,5.6,36,0.00,,,0.00,VWS V14.01,2013-04-09 19:45:00,
2013-04-09 15:48:00,77.5,48.8,30.15,SE,135,2.9,2.9,36,0.00,,,0.00,VWS V14.01,2013-04-09 19:48:00,
2013-04-09 15:53:00,78.0,49.3,30.15,West,270,2.7,2.7,36,0.00,,,0.00,VWS V14.01,2013-04-09 19:53:00,
2013-04-09 15:58:00,78.4,47.3,30.15,NNE,22,3.1,3.1,34,0.00,,,0.00,VWS V14.01,2013-04-09 19:58:00,
2013-04-09 16:00:00,78.4,47.3,30.15,NE,45,2.5,2.5,34,0.00,,,0.00,VWS V14.01,2013-04-09 20:00:00,
2013-04-09 16:03:00,77.5,47.3,30.15,NW,315,5.8,5.8,34,0.00,,,0.00,VWS V14.01,2013-04-09 20:03:00,
2013-04-09 16:08:00,78.4,49.6,30.15,NNW,338,0.0,0.0,36,0.00,,,0.00,VWS V14.01,2013-04-09 20:08:00,
2013-04-09 16:13:00,78.0,47.0,30.15,NW,315,4.3,4.3,34,0.00,,,0.00,VWS V14.01,2013-04-09 20:13:00,
2013-04-09 16:15:00,76.4,47.9,30.15,SSW,202,2.9,2.9,36,0.00,,,0.00,VWS V14.01,2013-04-09 20:15:00,
2013-04-09 16:18:00,76.0,47.5,30.15,South,180,1.1,1.1,36,0.00,,,0.00,VWS V14.01,2013-04-09 20:18:00,
2013-04-09 16:23:00,76.4,47.9,30.15,SE,135,0.9,0.9,36,0.00,,,0.00,VWS V14.01,2013-04-09 20:23:00,
2013-04-09 16:28:00,76.4,47.9,30.15,NNW,338,1.3,1.3,36,0.00,,,0.00,VWS V14.01,2013-04-09 20:28:00,
2013-04-09 16:30:00,76.6,48.0,30.15,NNW,338,2.5,2.5,36,0.00,,,0.00,VWS V14.01,2013-04-09 20:30:00,
2013-04-09 16:33:00,76.8,48.2,30.15,North,0,2.0,2.0,36,0.00,,,0.00,VWS V14.01,2013-04-09 20:33:00,
2013-04-09 16:38:00,77.1,48.5,30.15,South,180,1.6,1.6,36,0.00,,,0.00,VWS V14.01,2013-04-09 20:38:00,
2013-04-09 16:43:00,77.1,48.5,30.15,South,180,3.8,3.8,36,0.00,,,0.00,VWS V14.01,2013-04-09 20:43:00,
2013-04-09 16:48:00,76.6,48.0,30.15,SSE,158,0.0,0.0,36,0.00,,,0.00,VWS V14.01,2013-04-09 20:48:00,
2013-04-09 16:53:00,76.4,47.9,30.15,South,180,5.4,5.4,36,0.00,,,0.00,VWS V14.01,2013-04-09 20:53:00,
2013-04-09 16:58:00,76.4,47.9,30.15,WSW,248,1.6,1.6,36,0.00,,,0.00,VWS V14.01,2013-04-09 20:58:00,
2013-04-09 17:00:00,76.2,47.7,30.15,East,90,2.5,2.5,36,0.00,,,0.00,VWS V14.01,2013-04-09 21:00:00,
2013-04-09 17:03:00,76.2,47.7,30.15,SE,135,3.6,3.6,36,0.00,,,0.00,VWS V14.01,2013-04-09 21:03:00,
2013-04-09 17:08:00,75.7,47.2,30.15,South,180,7.6,7.6,36,0.00,,,0.00,VWS V14.01,2013-04-09 21:08:00,
2013-04-09 17:13:00,75.5,47.1,30.15,South,180,3.8,3.8,36,0.00,,,0.00,VWS V14.01,2013-04-09 21:13:00,
2013-04-09 17:18:00,75.5,47.1,30.15,ESE,112,4.3,4.3,36,0.00,,,0.00,VWS V14.01,2013-04-09 21:18:00,
2013-04-09 17:23:00,75.7,47.2,30.12,SSE,158,5.8,5.8,36,0.00,,,0.00,VWS V14.01,2013-04-09 21:23:00,
2013-04-09 17:28:00,75.7,47.2,30.12,WSW,248,3.4,3.4,36,0.00,,,0.00,VWS V14.01,2013-04-09 21:28:00,
2013-04-09 17:30:00,75.3,46.9,30.12,SSE,158,5.6,5.6,36,0.00,,,0.00,VWS V14.01,2013-04-09 21:30:00,
2013-04-09 17:33:00,75.3,46.9,30.12,SE,135,10.1,10.1,36,0.00,,,0.00,VWS V14.01,2013-04-09 21:33:00,
2013-04-09 17:38:00,75.1,46.8,30.15,SSW,202,3.1,3.1,36,0.00,,,0.00,VWS V14.01,2013-04-09 21:38:00,
2013-04-09 17:43:00,75.5,47.1,30.15,SE,135,5.4,5.4,36,0.00,,,0.00,VWS V14.01,2013-04-09 21:43:00,
2013-04-09 17:45:00,75.5,47.1,30.15,South,180,3.6,3.6,36,0.00,,,0.00,VWS V14.01,2013-04-09 21:45:00,
2013-04-09 17:48:00,75.5,47.1,30.15,East,90,2.5,2.5,36,0.00,,,0.00,VWS V14.01,2013-04-09 21:48:00,
2013-04-09 17:53:00,75.3,46.9,30.15,NE,45,2.7,2.7,36,0.00,,,0.00,VWS V14.01,2013-04-09 21:53:00,
2013-04-09 17:58:00,74.8,46.4,30.15,SSW,202,1.6,1.6,36,0.00,,,0.00,VWS V14.01,2013-04-09 21:58:00,
2013-04-09 18:00:00,74.6,46.3,30.15,East,90,2.9,2.9,36,0.00,,,0.00,VWS V14.01,2013-04-09 22:00:00,
2013-04-09 18:03:00,74.6,46.3,30.15,NW,315,2.9,2.9,36,0.00,,,0.00,VWS V14.01,2013-04-09 22:03:00,
2013-04-09 18:08:00,74.6,46.3,30.15,East,90,2.7,2.7,36,0.00,,,0.00,VWS V14.01,2013-04-09 22:08:00,
2013-04-09 18:13:00,74.6,46.3,30.15,NNW,338,0.9,0.9,36,0.00,,,0.00,VWS V14.01,2013-04-09 22:13:00,
2013-04-09 18:15:00,74.8,46.4,30.15,SSE,158,3.4,3.4,36,0.00,,,0.00,VWS V14.01,2013-04-09 22:15:00,
2013-04-09 18:18:00,74.8,46.4,30.15,WNW,292,2.5,2.5,36,0.00,,,0.00,VWS V14.01,2013-04-09 22:18:00,
2013-04-09 18:23:00,74.9,46.6,30.15,SSE,158,3.8,3.8,36,0.00,,,0.00,VWS V14.01,2013-04-09 22:23:00,
2013-04-09 18:28:00,74.8,46.4,30.15,NW,315,1.3,1.3,36,0.00,,,0.00,VWS V14.01,2013-04-09 22:28:00,
2013-04-09 18:30:00,74.8,46.4,30.15,WNW,292,3.1,3.1,36,0.00,,,0.00,VWS V14.01,2013-04-09 22:30:00,
2013-04-09 18:33:00,74.6,46.3,30.15,East,90,2.7,2.7,36,0.00,,,0.00,VWS V14.01,2013-04-09 22:33:00,
2013-04-09 18:38:00,74.4,46.1,30.15,ENE,68,1.1,1.1,36,0.00,,,0.00,VWS V14.01,2013-04-09 22:38:00,
2013-04-09 18:43:00,74.4,46.1,30.15,SE,135,1.6,1.6,36,0.00,,,0.00,VWS V14.01,2013-04-09 22:43:00,
2013-04-09 18:45:00,74.2,46.7,30.15,SSE,158,5.4,5.4,38,0.00,,,0.00,VWS V14.01,2013-04-09 22:45:00,
2013-04-09 18:48:00,74.1,46.5,30.15,ESE,112,2.7,2.7,38,0.00,,,0.00,VWS V14.01,2013-04-09 22:48:00,
2013-04-09 18:53:00,73.9,46.3,30.15,NNW,338,2.7,2.7,38,0.00,,,0.00,VWS V14.01,2013-04-09 22:53:00,
2013-04-09 18:58:00,73.5,46.0,30.15,NNW,338,1.3,1.3,38,0.00,,,0.00,VWS V14.01,2013-04-09 22:58:00,
2013-04-09 19:00:00,73.5,46.0,30.15,East,90,2.0,2.0,38,0.00,,,0.00,VWS V14.01,2013-04-09 23:00:00,
2013-04-09 19:03:00,73.3,45.9,30.15,North,0,2.7,2.7,38,0.00,,,0.00,VWS V14.01,2013-04-09 23:03:00,
2013-04-09 19:08:00,73.0,45.5,30.15,East,90,4.0,4.0,38,0.00,,,0.00,VWS V14.01,2013-04-09 23:08:00,
2013-04-09 19:13:00,72.6,45.2,30.15,West,270,0.9,0.9,38,0.00,,,0.00,VWS V14.01,2013-04-09 23:13:00,
2013-04-09 19:15:00,72.4,45.8,30.15,WNW,292,2.0,2.0,38,0.00,,,0.00,VWS V14.01,2013-04-09 23:15:00,
2013-04-09 19:18:00,72.2,45.6,30.15,North,0,0.0,0.0,38,0.00,,,0.00,VWS V14.01,2013-04-09 23:18:00,
2013-04-09 19:23:00,72.4,45.8,30.15,SE,135,2.9,2.9,38,0.00,,,0.00,VWS V14.01,2013-04-09 23:23:00,
2013-04-09 19:28:00,72.4,45.8,30.15,ENE,68,2.0,2.0,38,0.00,,,0.00,VWS V14.01,2013-04-09 23:28:00,
2013-04-09 19:30:00,72.2,45.6,30.15,ENE,68,2.7,2.7,38,0.00,,,0.00,VWS V14.01,2013-04-09 23:30:00,
2013-04-09 19:33:00,72.2,45.6,30.15,North,0,2.7,2.7,38,0.00,,,0.00,VWS V14.01,2013-04-09 23:33:00,
2013-04-09 19:38:00,72.2,45.6,30.15,South,180,7.6,7.6,38,0.00,,,0.00,VWS V14.01,2013-04-09 23:38:00,
2013-04-09 19:43:00,72.4,45.8,30.15,SE,135,5.4,5.4,38,0.00,,,0.00,VWS V14.01,2013-04-09 23:43:00,
2013-04-09 19:45:00,72.2,45.6,30.15,SE,135,2.5,2.5,38,0.00,,,0.00,VWS V14.01,2013-04-09 23:45:00,
2013-04-09 19:48:00,72.2,45.6,30.15,ENE,68,1.6,1.6,38,0.00,,,0.00,VWS V14.01,2013-04-09 23:48:00,
2013-04-09 19:53:00,72.1,45.4,30.15,South,180,0.0,0.0,38,0.00,,,0.00,VWS V14.01,2013-04-09 23:53:00,
2013-04-09 19:58:00,71.9,45.3,30.15,NNW,338,0.0,0.0,38,0.00,,,0.00,VWS V14.01,2013-04-09 23:58:00,
2013-04-09 20:00:00,71.5,45.0,30.15,South,180,0.9,0.9,38,0.00,,,0.00,VWS V14.01,2013-04-10 00:00:00,
2013-04-09 20:03:00,71.5,45.0,30.15,SSE,158,0.0,0.0,38,0.00,,,0.00,VWS V14.01,2013-04-10 00:03:00,
2013-04-09 20:08:00,71.3,44.8,30.15,ESE,112,1.1,1.1,38,0.00,,,0.00,VWS V14.01,2013-04-10 00:08:00,
2013-04-09 20:13:00,71.0,44.5,30.15,SW,225,1.3,1.3,38,0.00,,,0.00,VWS V14.01,2013-04-10 00:13:00,
2013-04-09 20:15:00,70.3,44.5,30.15,South,180,2.7,2.7,40,0.00,,,0.00,VWS V14.01,2013-04-10 00:15:00,
2013-04-09 20:18:00,70.4,44.0,30.15,South,180,2.9,2.9,38,0.00,,,0.00,VWS V14.01,2013-04-10 00:18:00,
2013-04-09 20:23:00,71.0,44.5,30.12,SSE,158,6.3,6.3,38,0.00,,,0.00,VWS V14.01,2013-04-10 00:23:00,
2013-04-09 20:28:00,71.2,44.6,30.12,SSW,202,7.8,7.8,38,0.00,,,0.00,VWS V14.01,2013-04-10 00:28:00,
2013-04-09 20:30:00,71.2,44.6,30.12,SSE,158,6.0,6.0,38,0.00,,,0.00,VWS V14.01,2013-04-10 00:30:00,
2013-04-09 20:33:00,71.2,44.6,30.12,SSE,158,3.1,3.1,38,0.00,,,0.00,VWS V14.01,2013-04-10 00:33:00,
2013-04-09 20:38:00,71.3,44.8,30.09,SE,135,7.2,7.2,38,0.00,,,0.00,VWS V14.01,2013-04-10 00:38:00,
2013-04-09 20:43:00,71.2,44.6,30.09,ESE,112,3.4,3.4,38,0.00,,,0.00,VWS V14.01,2013-04-10 00:43:00,
2013-04-09 20:45:00,71.2,44.6,30.09,SE,135,3.4,3.4,38,0.00,,,0.00,VWS V14.01,2013-04-10 00:45:00,
2013-04-09 20:48:00,71.2,44.6,30.09,SE,135,5.6,5.6,38,0.00,,,0.00,VWS V14.01,2013-04-10 00:48:00,
2013-04-09 20:53:00,71.3,44.8,30.09,South,180,3.4,3.4,38,0.00,,,0.00,VWS V14.01,2013-04-10 00:53:00,
2013-04-09 20:58:00,71.0,44.5,30.09,SE,135,5.6,5.6,38,0.00,,,0.00,VWS V14.01,2013-04-10 00:58:00,
2013-04-09 21:00:00,70.6,44.2,30.09,NE,45,2.7,2.7,38,0.00,,,0.00,VWS V14.01,2013-04-10 01:00:00,
2013-04-09 21:03:00,70.6,44.2,30.09,SSE,158,2.9,2.9,38,0.00,,,0.00,VWS V14.01,2013-04-10 01:03:00,
2013-04-09 21:08:00,70.6,44.2,30.09,SE,135,5.6,5.6,38,0.00,,,0.00,VWS V14.01,2013-04-10 01:08:00,
2013-04-09 21:13:00,71.0,44.5,30.09,SSE,158,6.5,6.5,38,0.00,,,0.00,VWS V14.01,2013-04-10 01:13:00,
2013-04-09 21:15:00,70.8,44.3,30.09,SE,135,3.8,3.8,38,0.00,,,0.00,VWS V14.01,2013-04-10 01:15:00,
2013-04-09 21:18:00,70.6,44.8,30.09,SSE,158,6.7,6.7,40,0.00,,,0.00,VWS V14.01,2013-04-10 01:18:00,
2013-04-09 21:23:00,70.3,44.5,30.12,NNW,338,1.6,1.6,40,0.00,,,0.00,VWS V14.01,2013-04-10 01:23:00,
2013-04-09 21:28:00,69.9,44.2,30.12,East,90,2.9,2.9,40,0.00,,,0.00,VWS V14.01,2013-04-10 01:28:00,
2013-04-09 21:30:00,69.4,43.7,30.12,WNW,292,2.9,2.9,40,0.00,,,0.00,VWS V14.01,2013-04-10 01:30:00,
2013-04-09 21:33:00,69.0,43.4,30.12,SSW,202,2.9,2.9,40,0.00,,,0.00,VWS V14.01,2013-04-10 01:33:00,
2013-04-09 21:38:00,69.0,43.4,30.12,NW,315,1.3,1.3,40,0.00,,,0.00,VWS V14.01,2013-04-10 01:38:00,
2013-04-09 21:43:00,68.8,43.9,30.12,SSE,158,0.0,0.0,40,0.00,,,0.00,VWS V14.01,2013-04-10 01:43:00,
2013-04-09 21:45:00,68.5,43.5,30.12,NNW,338,0.0,0.0,40,0.00,,,0.00,VWS V14.01,2013-04-10 01:45:00,
2013-04-09 21:48:00,67.9,43.1,30.12,NNE,22,0.0,0.0,40,0.00,,,0.00,VWS V14.01,2013-04-10 01:48:00,
2013-04-09 21:53:00,67.2,43.0,30.15,ENE,68,0.0,0.0,42,0.00,,,0.00,VWS V14.01,2013-04-10 01:53:00,
2013-04-09 21:58:00,66.1,42.7,30.15,South,180,1.6,1.6,42,0.00,,,0.00,VWS V14.01,2013-04-10 01:58:00,
2013-04-09 22:00:00,65.2,42.5,30.15,SSE,158,0.0,0.0,44,0.00,,,0.00,VWS V14.01,2013-04-10 02:00:00,
2013-04-09 22:03:00,64.9,42.8,30.15,South,180,0.0,0.0,44,0.00,,,0.00,VWS V14.01,2013-04-10 02:03:00,
2013-04-09 22:08:00,65.1,43.5,30.15,WSW,248,0.0,0.0,46,0.00,,,0.00,VWS V14.01,2013-04-10 02:08:00,
2013-04-09 22:13:00,64.7,44.3,30.15,SE,135,2.9,2.9,48,0.00,,,0.00,VWS V14.01,2013-04-10 02:13:00,
2013-04-09 22:15:00,64.9,45.0,30.15,WNW,292,1.1,1.1,48,0.00,,,0.00,VWS V14.01,2013-04-10 02:15:00,
2013-04-09 22:18:00,64.5,45.2,30.15,NE,45,0.0,0.0,50,0.00,,,0.00,VWS V14.01,2013-04-10 02:18:00,
2013-04-09 22:23:00,65.4,45.5,30.12,ESE,112,4.3,4.3,48,0.00,,,0.00,VWS V14.01,2013-04-10 02:23:00,
2013-04-09 22:28:00,67.8,46.5,30.12,WNW,292,2.5,2.5,46,0.00,,,0.00,VWS V14.01,2013-04-10 02:28:00,
2013-04-09 22:30:00,67.6,45.8,30.12,SSW,202,3.4,3.4,46,0.00,,,0.00,VWS V14.01,2013-04-10 02:30:00,
2013-04-09 22:33:00,68.3,45.9,30.12,East,90,4.0,4.0,44,0.00,,,0.00,VWS V14.01,2013-04-10 02:33:00,
2013-04-09 22:38:00,68.1,45.7,30.12,South,180,3.1,3.1,44,0.00,,,0.00,VWS V14.01,2013-04-10 02:38:00,
2013-04-09 22:43:00,67.8,45.4,30.12,WNW,292,2.5,2.5,44,0.00,,,0.00,VWS V14.01,2013-04-10 02:43:00,
2013-04-09 22:45:00,66.8,45.1,30.12,ESE,112,2.5,2.5,46,0.00,,,0.00,VWS V14.01,2013-04-10 02:45:00,
2013-04-09 22:48:00,67.6,45.2,30.12,East,90,3.8,3.8,44,0.00,,,0.00,VWS V14.01,2013-04-10 02:48:00,
2013-04-09 22:53:00,68.5,46.0,30.15,SE,135,3.4,3.4,44,0.00,,,0.00,VWS V14.01,2013-04-10 02:53:00,
2013-04-09 22:58:00,67.9,45.5,30.15,SW,225,3.6,3.6,44,0.00,,,0.00,VWS V14.01,2013-04-10 02:58:00,
2013-04-09 23:00:00,68.1,45.7,30.15,NNW,338,2.5,2.5,44,0.00,,,0.00,VWS V14.01,2013-04-10 03:00:00,
2013-04-09 23:03:00,67.6,45.2,30.15,NNW,338,2.7,2.7,44,0.00,,,0.00,VWS V14.01,2013-04-10 03:03:00,
2013-04-09 23:08:00,66.7,45.0,30.12,NW,315,2.5,2.5,46,0.00,,,0.00,VWS V14.01,2013-04-10 03:08:00,
2013-04-09 23:13:00,67.4,45.6,30.12,SE,135,1.3,1.3,46,0.00,,,0.00,VWS V14.01,2013-04-10 03:13:00,
2013-04-09 23:15:00,67.0,45.3,30.12,NE,45,1.1,1.1,46,0.00,,,0.00,VWS V14.01,2013-04-10 03:15:00,
2013-04-09 23:18:00,66.8,45.7,30.12,NW,315,2.0,2.0,46,0.00,,,0.00,VWS V14.01,2013-04-10 03:18:00,
2013-04-09 23:23:00,65.1,45.2,30.15,NNW,338,2.9,2.9,48,0.00,,,0.00,VWS V14.01,2013-04-10 03:23:00,
2013-04-09 23:28:00,65.1,45.2,30.15,NNW,338,3.8,3.8,48,0.00,,,0.00,VWS V14.01,2013-04-10 03:28:00,
2013-04-09 23:30:00,64.7,45.4,30.15,NNE,22,1.1,1.1,50,0.00,,,0.00,VWS V14.01,2013-04-10 03:30:00,
2013-04-09 23:33:00,64.2,44.9,30.15,SSW,202,0.0,0.0,50,0.00,,,0.00,VWS V14.01,2013-04-10 03:33:00,
2013-04-09 23:38:00,64.2,44.9,30.15,WNW,292,0.0,0.0,50,0.00,,,0.00,VWS V14.01,2013-04-10 03:38:00,
2013-04-09 23:43:00,64.0,44.7,30.15,NW,315,0.0,0.0,50,0.00,,,0.00,VWS V14.01,2013-04-10 03:43:00,
2013-04-09 23:45:00,63.4,44.8,30.15,NNW,338,2.9,2.9,50,0.00,,,0.00,VWS V14.01,2013-04-10 03:45:00,
2013-04-09 23:48:00,63.1,44.4,30.15,SE,135,1.3,1.3,50,0.00,,,0.00,VWS V14.01,2013-04-10 03:48:00,
2013-04-09 23:53:00,62.9,44.2,30.12,NNW,338,0.0,0.0,50,0.00,,,0.00,VWS V14.01,2013-04-10 03:53:00,
2013-04-09 23:58:00,62.5,44.4,30.12,West,270,1.6,1.6,52,0.00,,,0.00,VWS V14.01,2013-04-10 03:58:00,